• Join FlightAware (Why Join?)
  • Login
  • US Flag 
11:36AM EDT


 

Airport Tracker/Info


-or-


 

Live Flight TrackerFlight Track Log ✈ XOJ750 ✈ 08-Jul-2013 ✈ CYVR - KBFI

Flight Track Log - Related Links

Times and Time Zones

All times are in EDT time to prevent confusion due to time zone crossing. See the XOJ750 flight status page for this flight to view local times or setup timezone preferences in your user account.

Time Position Orientation Groundspeed Altitude Reporting Facility
EDT Latitude Longitude Course Direction KTS MPH feet Rate Location/Type
05:33PM 49.1622 -123.3206 198° South 254 292 6,800  Level Seattle Center
05:34PM 49.0939 -123.3622 202° Southwest 313 360 10,100 2,040 Climbing Seattle Center
05:35PM 49.0097 -123.3142 159° South 327 376 11,100 420 Climbing Seattle Center
05:35PM 48.8833 -123.2667 166° South 400 460 10,900 -120 Descending Vancouver Center
05:36PM 48.8259 -122.9839 162° South  Level Estimated
05:36PM 48.7833 -123.2167 162° South 400 460 10,900  Level Vancouver Center
05:37PM 48.7645 -122.9508 169° South  Level Estimated
05:37PM 48.6667 -123.1667 164° South 410 472 10,900  Level Vancouver Center
05:38PM 48.7027 -122.9819 198° South  Level FlightAware Approximate
05:39PM 48.5650 -123.0978 156° South 406 467 11,000  Level Seattle Center
05:40PM 48.4583 -123.0464 162° South 407 468 11,000  Level Seattle Center
05:41PM 48.3519 -122.9950 162° South 406 467 11,000  Level Seattle Center
05:42PM 48.2436 -122.9458 163° South 409 471 11,000  Level Seattle Center
05:42PM 48.1736 -122.9136 163° South 402 463 11,000  Level Seattle Center
05:43PM 48.1428 -122.8972 160° South 373 429 11,000  Level Seattle Center
05:43PM 48.0758 -122.8675 163° South 301 346 11,000  Level Seattle Center
05:44PM 47.9983 -122.8139 155° Southeast 314 361 11,000 -240 Level Seattle Center
05:45PM 47.9219 -122.7467 149° Southeast 310 357 10,600 -540 Descending Seattle Center
05:46PM 47.8500 -122.6806 148° Southeast 309 356 10,000 -300 Descending Seattle Center
05:47PM 47.7789 -122.6175 149° Southeast 304 350 10,000  Level Seattle Center
05:48PM 47.7017 -122.5478 149° Southeast 302 348 10,000  Level Seattle Center
05:49PM 47.6269 -122.4803 149° Southeast 310 357 10,000  Level Seattle Center
05:51PM 47.5469 -122.4619 171° South 301 346 10,000 -660 Level Seattle Center
05:52PM 47.4547 -122.4142 161° South 294 338 8,600 -1,740 Descending Seattle Center
05:53PM 47.3881 -122.3528 148° Southeast 288 331 6,200 -2,640 Descending Seattle Center
05:54PM 47.3636 -122.2647 112° Southeast 239 275 3,600 -1,620 Descending Seattle Center
05:55PM 47.3739 -122.2003 77° East 175 201 3,100 -600 Descending Seattle Center
05:56PM 47.4250 -122.2178 347° North 172 198 2,400 -900 Descending Seattle Center
05:57PM 47.4658 -122.2475 334° Northwest 155 178 1,300 -900 Descending Seattle Center
05:58PM 47.5003 -122.2778 329° Northwest 125 144 500 -540 Descending Seattle Center
05:59PM 47.5353 -122.3069 331° Northwest 131 151 100 -360 Descending Seattle Center
06:01PM 47.5300 -122.3020 188° South  Level Estimated